createdAt,value
2018-07-23T00:00:24.776Z,17.40
2018-07-23T00:02:53.538Z,17.40
2018-07-23T00:05:22.328Z,17.30
2018-07-23T00:07:51.104Z,17.30
2018-07-23T00:10:19.946Z,17.30
2018-07-23T00:12:48.678Z,17.20
2018-07-23T00:15:17.445Z,17.20
2018-07-23T00:17:46.188Z,17.20
2018-07-23T00:20:15.001Z,17.20
2018-07-23T00:22:43.787Z,17.20
2018-07-23T00:25:12.667Z,17.20
2018-07-23T00:27:41.485Z,17.20
2018-07-23T00:30:10.319Z,17.30
2018-07-23T00:32:39.142Z,17.30
2018-07-23T00:35:07.956Z,17.30
2018-07-23T00:37:36.793Z,17.30
2018-07-23T00:40:05.586Z,17.30
2018-07-23T00:42:34.389Z,17.20
2018-07-23T00:45:03.191Z,17.20
2018-07-23T00:47:31.968Z,17.30
2018-07-23T00:50:00.763Z,17.20
2018-07-23T00:52:29.667Z,17.20
2018-07-23T00:54:58.477Z,17.20
2018-07-23T00:57:27.284Z,17.20
2018-07-23T00:59:56.097Z,17.20
2018-07-23T01:02:24.885Z,17.30
2018-07-23T01:04:53.806Z,17.30
2018-07-23T01:07:22.630Z,17.40
2018-07-23T01:09:51.819Z,17.40
2018-07-23T01:12:32.504Z,17.60
2018-07-23T01:15:01.336Z,17.60
2018-07-23T01:17:30.167Z,17.70
2018-07-23T01:19:59.751Z,17.70
2018-07-23T01:22:29.067Z,17.80
2018-07-23T01:24:58.604Z,17.80
2018-07-23T01:27:27.429Z,17.90
2018-07-23T01:29:56.193Z,17.90
2018-07-23T01:32:24.977Z,18.00
2018-07-23T01:34:53.772Z,18.00
2018-07-23T01:37:22.577Z,18.10
2018-07-23T01:39:51.357Z,18.10
2018-07-23T01:42:20.099Z,18.20
2018-07-23T01:44:48.820Z,18.20
2018-07-23T01:47:17.639Z,18.20
2018-07-23T01:49:46.393Z,18.20
2018-07-23T01:52:15.174Z,18.20
2018-07-23T01:54:44.010Z,18.30
2018-07-23T01:57:12.745Z,18.20
2018-07-23T01:59:41.530Z,18.20
2018-07-23T02:02:10.379Z,18.20
2018-07-23T02:04:39.315Z,18.20
2018-07-23T02:07:08.546Z,18.20
2018-07-23T02:09:37.330Z,18.30
2018-07-23T02:12:06.243Z,18.30
2018-07-23T02:14:35.047Z,18.20
2018-07-23T02:17:03.933Z,18.30
2018-07-23T02:19:32.745Z,18.30
2018-07-23T02:22:01.560Z,18.30
2018-07-23T02:24:30.300Z,18.30
2018-07-23T02:26:59.069Z,18.30
2018-07-23T02:29:27.893Z,18.20
2018-07-23T02:31:56.710Z,18.30
2018-07-23T02:34:25.479Z,18.20
2018-07-23T02:36:54.231Z,18.30
2018-07-23T02:39:22.988Z,18.30
2018-07-23T02:41:51.790Z,18.30
2018-07-23T02:44:20.759Z,18.30
2018-07-23T02:46:49.581Z,18.30
2018-07-23T02:49:18.402Z,18.30
2018-07-23T02:51:47.332Z,18.30
2018-07-23T02:54:16.122Z,18.30
2018-07-23T02:56:44.940Z,18.30
2018-07-23T02:59:13.726Z,18.30
2018-07-23T03:01:42.544Z,18.30
2018-07-23T03:04:11.373Z,18.30
2018-07-23T03:06:40.170Z,18.30
2018-07-23T03:09:09.071Z,18.40
2018-07-23T03:11:37.824Z,18.30
2018-07-23T03:14:06.632Z,18.30
2018-07-23T03:16:35.439Z,18.30
2018-07-23T03:19:04.245Z,18.40
2018-07-23T03:21:33.100Z,18.40
2018-07-23T03:24:01.919Z,18.40
2018-07-23T03:26:30.759Z,18.40
2018-07-23T03:28:59.560Z,18.40
2018-07-23T03:31:28.323Z,18.40
2018-07-23T03:33:57.067Z,18.40
2018-07-23T03:36:25.886Z,18.40
2018-07-23T03:38:54.619Z,18.40
2018-07-23T03:41:23.593Z,18.40
2018-07-23T03:43:52.451Z,18.40
2018-07-23T03:46:21.289Z,18.40
2018-07-23T03:48:50.117Z,18.40
2018-07-23T03:51:18.937Z,18.40
2018-07-23T03:53:47.693Z,18.50
2018-07-23T03:56:16.454Z,18.50
2018-07-23T03:58:45.268Z,18.50
2018-07-23T04:01:14.050Z,18.60
2018-07-23T04:03:42.802Z,18.50
2018-07-23T04:06:11.580Z,18.50
2018-07-23T04:08:40.385Z,18.60
2018-07-23T04:11:09.225Z,18.60
2018-07-23T04:13:38.027Z,18.60
2018-07-23T04:16:06.794Z,18.60
2018-07-23T04:18:35.537Z,18.60
2018-07-23T04:21:04.403Z,18.60
2018-07-23T04:23:33.110Z,18.60
2018-07-23T04:26:01.904Z,18.70
2018-07-23T04:28:30.714Z,18.70
2018-07-23T04:30:59.433Z,18.70
2018-07-23T04:33:28.246Z,18.80
2018-07-23T04:35:56.989Z,18.80
2018-07-23T04:38:25.945Z,18.80
2018-07-23T04:40:54.725Z,18.80
2018-07-23T04:43:23.504Z,18.90
2018-07-23T04:45:52.337Z,19.00
2018-07-23T04:48:21.104Z,19.00
2018-07-23T04:50:49.946Z,19.10
2018-07-23T04:53:18.715Z,19.10
2018-07-23T04:55:47.500Z,19.10
2018-07-23T04:58:16.249Z,19.00
2018-07-23T05:00:45.059Z,19.10
2018-07-23T05:03:13.871Z,19.10
2018-07-23T05:05:42.649Z,19.10
2018-07-23T05:08:11.440Z,19.10
2018-07-23T05:10:40.275Z,19.10
2018-07-23T05:13:09.047Z,19.10
2018-07-23T05:15:37.829Z,19.10
2018-07-23T05:18:06.695Z,19.20
2018-07-23T05:20:35.502Z,19.20
2018-07-23T05:23:04.278Z,19.30
2018-07-23T05:25:33.143Z,19.30
2018-07-23T05:28:01.932Z,19.30
2018-07-23T05:30:30.689Z,19.30
2018-07-23T05:32:59.519Z,19.40
2018-07-23T05:35:28.307Z,19.40
2018-07-23T05:37:57.032Z,19.40
2018-07-23T05:40:25.762Z,19.50
2018-07-23T05:42:54.582Z,19.50
2018-07-23T05:45:23.386Z,19.50
2018-07-23T05:47:52.183Z,19.40
2018-07-23T05:50:20.947Z,19.60
2018-07-23T05:52:49.757Z,19.50
2018-07-23T05:55:18.582Z,19.40
2018-07-23T05:57:47.485Z,19.50
2018-07-23T06:00:16.387Z,19.50
2018-07-23T06:02:45.109Z,19.60
2018-07-23T06:05:13.888Z,19.70
2018-07-23T06:07:42.714Z,19.70
2018-07-23T06:10:11.518Z,19.60
2018-07-23T06:12:40.305Z,19.50
2018-07-23T06:15:09.774Z,19.60
2018-07-23T06:17:38.546Z,19.70
2018-07-23T06:20:08.009Z,19.70
2018-07-23T06:22:36.760Z,19.70
2018-07-23T06:25:06.278Z,19.60
2018-07-23T06:27:35.159Z,19.40
2018-07-23T06:30:05.046Z,19.60
2018-07-23T06:32:33.777Z,19.60
2018-07-23T06:35:02.601Z,19.70
2018-07-23T06:37:31.533Z,19.60
2018-07-23T06:40:00.254Z,19.70
2018-07-23T06:42:29.177Z,19.70
2018-07-23T06:44:58.018Z,19.90
2018-07-23T06:47:26.857Z,20.00
2018-07-23T06:49:55.655Z,20.20
2018-07-23T06:52:24.753Z,20.30
2018-07-23T06:54:53.628Z,20.40
2018-07-23T06:57:22.502Z,20.40
2018-07-23T06:59:51.415Z,20.50
2018-07-23T07:02:20.175Z,20.40
2018-07-23T07:04:48.981Z,20.60
2018-07-23T07:07:17.792Z,20.50
2018-07-23T07:09:46.577Z,20.30
2018-07-23T07:12:15.352Z,20.40
2018-07-23T07:14:44.191Z,20.50
2018-07-23T07:17:12.958Z,20.40
2018-07-23T07:19:41.809Z,20.50
2018-07-23T07:22:10.597Z,20.40
2018-07-23T07:24:39.625Z,20.30
2018-07-23T07:27:08.439Z,20.50
2018-07-23T07:29:37.314Z,20.40
2018-07-23T07:32:06.243Z,20.50
2018-07-23T07:34:35.203Z,20.50
2018-07-23T07:37:04.040Z,20.40
2018-07-23T07:39:32.867Z,20.30
2018-07-23T07:42:01.671Z,20.30
2018-07-23T07:44:30.469Z,20.30
2018-07-23T07:46:59.348Z,20.30
2018-07-23T07:49:28.078Z,20.40
2018-07-23T07:51:56.922Z,20.60
2018-07-23T07:54:25.734Z,20.50
2018-07-23T07:56:54.508Z,20.50
2018-07-23T07:59:23.332Z,20.40
2018-07-23T08:01:52.110Z,20.30
2018-07-23T08:04:20.911Z,20.50
2018-07-23T08:06:49.729Z,20.40
2018-07-23T08:09:18.556Z,20.70
2018-07-23T08:11:47.435Z,20.70
2018-07-23T08:14:16.279Z,20.70
2018-07-23T08:16:45.091Z,20.80
2018-07-23T08:19:13.906Z,20.80
2018-07-23T08:21:42.776Z,21.00
2018-07-23T08:24:11.599Z,21.10
2018-07-23T08:26:40.407Z,21.20
2018-07-23T08:29:09.281Z,21.20
2018-07-23T08:31:38.337Z,21.30
2018-07-23T08:34:07.122Z,21.10
2018-07-23T08:36:35.908Z,21.20
2018-07-23T08:39:08.049Z,21.30
2018-07-23T08:41:36.953Z,21.40
2018-07-23T08:44:05.886Z,21.50
2018-07-23T08:46:34.685Z,21.60
2018-07-23T08:49:04.116Z,21.50
2018-07-23T08:51:33.074Z,21.70
2018-07-23T08:54:01.915Z,21.40
2018-07-23T08:56:30.752Z,21.60
2018-07-23T08:58:59.606Z,21.70
2018-07-23T09:01:28.364Z,21.70
2018-07-23T09:03:57.247Z,21.90
2018-07-23T09:06:26.254Z,22.10
2018-07-23T09:08:55.003Z,22.20
2018-07-23T09:11:23.837Z,22.30
2018-07-23T09:13:52.584Z,22.40
2018-07-23T09:16:21.313Z,22.50
2018-07-23T09:18:50.058Z,22.60
2018-07-23T09:21:18.810Z,22.80
2018-07-23T09:23:47.617Z,22.80
2018-07-23T09:26:16.421Z,22.80
2018-07-23T09:28:45.190Z,22.60
2018-07-23T09:31:13.943Z,23.00
2018-07-23T09:33:42.748Z,22.80
2018-07-23T09:36:11.575Z,22.70
2018-07-23T09:38:40.528Z,22.90
2018-07-23T09:41:09.306Z,22.90
2018-07-23T09:43:38.068Z,23.00
2018-07-23T09:46:06.847Z,23.20
2018-07-23T09:48:35.634Z,23.40
2018-07-23T09:51:04.449Z,23.50
2018-07-23T09:53:33.248Z,23.60
2018-07-23T09:56:02.022Z,23.80
2018-07-23T09:58:30.784Z,23.60
2018-07-23T10:01:04.747Z,23.40
2018-07-23T10:03:33.614Z,23.30
2018-07-23T10:06:02.315Z,23.10
2018-07-23T10:08:31.103Z,23.40
2018-07-23T10:10:59.967Z,23.40
2018-07-23T10:13:28.722Z,23.60
2018-07-23T10:15:57.502Z,23.70
2018-07-23T10:18:26.262Z,23.70
2018-07-23T10:20:55.092Z,23.70
2018-07-23T10:23:23.914Z,24.20
2018-07-23T10:25:52.777Z,23.80
2018-07-23T10:28:21.536Z,23.20
2018-07-23T10:30:50.352Z,23.50
2018-07-23T10:33:19.141Z,23.60
2018-07-23T10:35:47.977Z,23.80
2018-07-23T10:38:17.192Z,24.00
2018-07-23T10:40:46.123Z,24.30
2018-07-23T10:43:14.915Z,24.10
2018-07-23T10:45:43.748Z,23.80
2018-07-23T10:48:12.505Z,24.30
2018-07-23T10:50:41.298Z,24.60
2018-07-23T10:53:10.060Z,24.50
2018-07-23T10:55:38.848Z,24.70
2018-07-23T10:58:07.656Z,24.00
2018-07-23T11:00:36.452Z,24.20
2018-07-23T11:03:05.328Z,24.20
2018-07-23T11:05:34.163Z,23.70
2018-07-23T11:08:02.987Z,24.30
2018-07-23T11:10:31.816Z,24.60
2018-07-23T11:13:00.645Z,24.30
2018-07-23T11:15:29.412Z,24.20
2018-07-23T11:17:58.241Z,24.30
2018-07-23T11:20:27.057Z,23.90
2018-07-23T11:22:55.860Z,23.50
2018-07-23T11:25:39.088Z,23.60
2018-07-23T11:27:53.467Z,23.80
2018-07-23T11:30:22.232Z,23.90
2018-07-23T11:32:51.053Z,24.40
2018-07-23T11:35:19.879Z,24.30
2018-07-23T11:37:48.784Z,24.00
2018-07-23T11:40:17.615Z,24.20
2018-07-23T11:42:46.568Z,24.20
2018-07-23T11:45:15.347Z,24.60
2018-07-23T11:47:44.162Z,24.50
2018-07-23T11:50:12.972Z,25.10
2018-07-23T11:52:41.767Z,25.10
2018-07-23T11:55:10.594Z,24.90
2018-07-23T11:57:39.422Z,24.90
2018-07-23T12:00:08.222Z,25.30
2018-07-23T12:02:37.048Z,24.90
2018-07-23T12:05:05.999Z,24.90
2018-07-23T12:07:34.758Z,24.70
2018-07-23T12:10:03.663Z,25.10
2018-07-23T12:12:32.515Z,25.20
2018-07-23T12:15:01.260Z,25.30
2018-07-23T12:17:30.098Z,25.00
2018-07-23T12:19:58.951Z,25.00
2018-07-23T12:22:27.732Z,25.30
2018-07-23T12:24:56.633Z,24.70
2018-07-23T12:27:25.387Z,24.90
2018-07-23T12:29:54.189Z,24.60
2018-07-23T12:32:22.983Z,24.70
2018-07-23T12:34:51.788Z,24.80
2018-07-23T12:37:20.648Z,25.00
2018-07-23T12:39:49.636Z,24.50
2018-07-23T12:42:18.412Z,25.10
2018-07-23T12:44:47.172Z,25.10
2018-07-23T12:47:15.988Z,25.20
2018-07-23T12:49:44.777Z,25.30
2018-07-23T12:52:13.591Z,26.00
2018-07-23T12:54:42.384Z,26.70
2018-07-23T12:57:14.136Z,28.30
2018-07-23T12:59:43.041Z,26.90
2018-07-23T13:02:11.879Z,30.20
2018-07-23T13:04:40.702Z,28.50
2018-07-23T13:07:09.500Z,29.90
2018-07-23T13:09:38.402Z,30.20
2018-07-23T13:12:07.235Z,32.40
2018-07-23T13:14:36.021Z,31.30
2018-07-23T13:17:04.842Z,30.60
2018-07-23T13:19:33.598Z,30.70
2018-07-23T13:22:02.374Z,32.40
2018-07-23T13:24:31.238Z,33.70
2018-07-23T13:27:00.047Z,35.20
2018-07-23T13:29:28.806Z,34.90
2018-07-23T13:31:57.576Z,35.40
2018-07-23T13:34:26.448Z,35.60
2018-07-23T13:36:55.389Z,35.80
2018-07-23T13:39:24.323Z,37.00
2018-07-23T13:41:53.287Z,35.80
2018-07-23T13:44:22.055Z,37.60
2018-07-23T13:46:51.186Z,38.40
2018-07-23T13:49:20.001Z,36.90
2018-07-23T13:51:48.751Z,36.90
2018-07-23T13:54:17.538Z,35.80
2018-07-23T13:56:46.322Z,36.00
2018-07-23T13:59:15.095Z,34.50
2018-07-23T14:01:43.888Z,35.90
2018-07-23T14:04:12.691Z,37.70
2018-07-23T14:06:41.531Z,37.70
2018-07-23T14:09:11.819Z,33.90
2018-07-23T14:11:40.817Z,33.80
2018-07-23T14:14:09.620Z,35.00
2018-07-23T14:16:38.416Z,34.70
2018-07-23T14:19:07.396Z,36.00
2018-07-23T14:21:36.279Z,36.30
2018-07-23T14:24:05.243Z,36.80
2018-07-23T14:26:34.032Z,36.00
2018-07-23T14:29:02.753Z,37.50
2018-07-23T14:31:31.542Z,37.30
2018-07-23T14:34:00.357Z,37.50
2018-07-23T14:36:29.156Z,37.20
2018-07-23T14:38:58.074Z,36.70
2018-07-23T14:41:26.828Z,34.20
2018-07-23T14:43:55.614Z,32.90
2018-07-23T14:46:24.438Z,32.40
2018-07-23T14:48:53.204Z,33.90
2018-07-23T14:51:22.008Z,33.70
2018-07-23T14:53:51.414Z,32.60
2018-07-23T14:56:20.458Z,34.20
2018-07-23T14:58:49.231Z,31.80
2018-07-23T15:01:18.094Z,33.80
2018-07-23T15:03:46.947Z,34.80
2018-07-23T15:06:15.727Z,33.80
2018-07-23T15:08:44.582Z,33.30
2018-07-23T15:11:13.424Z,32.30
2018-07-23T15:13:42.264Z,33.80
2018-07-23T15:16:10.988Z,32.80
2018-07-23T15:18:39.858Z,33.90
2018-07-23T15:21:08.600Z,33.20
2018-07-23T15:23:37.348Z,33.10
2018-07-23T15:26:06.131Z,33.30
2018-07-23T15:28:34.930Z,33.30
2018-07-23T15:31:03.692Z,32.40
2018-07-23T15:33:32.523Z,32.10
2018-07-23T15:36:01.396Z,33.10
2018-07-23T15:38:30.476Z,33.30
2018-07-23T15:40:59.456Z,32.90
2018-07-23T15:43:28.352Z,33.20
2018-07-23T15:45:57.518Z,32.70
2018-07-23T15:48:26.159Z,32.30
2018-07-23T15:50:55.355Z,32.00
2018-07-23T15:53:24.571Z,31.20
2018-07-23T15:55:53.472Z,29.50
2018-07-23T15:58:22.280Z,28.80
2018-07-23T16:00:51.090Z,27.00
2018-07-23T16:03:19.904Z,26.60
2018-07-23T16:05:48.689Z,26.50
2018-07-23T16:08:17.439Z,26.50
2018-07-23T16:10:46.225Z,26.30
2018-07-23T16:13:15.029Z,26.20
2018-07-23T16:15:43.806Z,25.90
2018-07-23T16:18:12.599Z,25.50
2018-07-23T16:20:41.400Z,25.00
2018-07-23T16:23:10.202Z,25.00
2018-07-23T16:25:39.069Z,25.10
2018-07-23T16:28:07.851Z,24.70
2018-07-23T16:30:36.686Z,24.80
2018-07-23T16:33:05.574Z,24.60
2018-07-23T16:35:34.379Z,24.70
2018-07-23T16:38:03.328Z,24.60
2018-07-23T16:40:32.172Z,24.60
2018-07-23T16:43:01.038Z,24.20
2018-07-23T16:45:29.831Z,23.90
2018-07-23T16:47:59.274Z,24.00
2018-07-23T16:50:28.074Z,23.90
2018-07-23T16:52:56.838Z,23.50
2018-07-23T16:55:25.613Z,23.60
2018-07-23T16:57:54.434Z,23.60
2018-07-23T17:00:23.340Z,23.50
2018-07-23T17:02:52.137Z,23.40
2018-07-23T17:05:20.930Z,23.50
2018-07-23T17:07:49.739Z,23.50
2018-07-23T17:10:18.515Z,23.40
2018-07-23T17:12:47.326Z,23.20
2018-07-23T17:15:16.091Z,23.20
2018-07-23T17:17:44.940Z,23.10
2018-07-23T17:20:13.759Z,23.00
2018-07-23T17:22:42.532Z,22.90
2018-07-23T17:25:11.344Z,22.70
2018-07-23T17:27:40.090Z,22.80
2018-07-23T17:30:08.855Z,22.80
2018-07-23T17:32:37.661Z,22.70
2018-07-23T17:35:06.464Z,22.60
2018-07-23T17:37:35.206Z,22.40
2018-07-23T17:40:04.184Z,22.50
2018-07-23T17:42:32.947Z,22.60
2018-07-23T17:45:01.757Z,22.50
2018-07-23T17:47:30.563Z,22.30
2018-07-23T17:49:59.455Z,22.40
2018-07-23T17:52:28.289Z,22.40
2018-07-23T17:54:57.112Z,22.30
2018-07-23T17:57:25.977Z,22.20
2018-07-23T17:59:54.830Z,22.00
2018-07-23T18:02:23.583Z,22.10
2018-07-23T18:04:52.399Z,22.00
2018-07-23T18:07:21.166Z,22.00
2018-07-23T18:09:49.936Z,22.00
2018-07-23T18:12:18.789Z,22.10
2018-07-23T18:14:47.556Z,21.90
2018-07-23T18:17:16.366Z,22.00
2018-07-23T18:19:45.158Z,21.90
2018-07-23T18:22:13.958Z,21.90
2018-07-23T18:24:42.727Z,21.90
2018-07-23T18:27:11.530Z,21.90
2018-07-23T18:29:40.352Z,21.80
2018-07-23T18:32:09.231Z,21.60
2018-07-23T18:34:38.066Z,21.70
2018-07-23T18:37:06.924Z,21.60
2018-07-23T18:39:35.766Z,21.60
2018-07-23T18:42:04.588Z,21.60
2018-07-23T18:44:33.413Z,21.60
2018-07-23T18:47:02.232Z,21.50
2018-07-23T18:49:44.200Z,21.50
2018-07-23T18:52:13.564Z,21.50
2018-07-23T18:54:43.408Z,21.40
2018-07-23T18:57:12.212Z,21.20
2018-07-23T18:59:41.079Z,21.30
2018-07-23T19:02:11.639Z,21.20
2018-07-23T19:04:40.561Z,21.20
2018-07-23T19:07:09.952Z,21.20
2018-07-23T19:09:38.759Z,21.10
2018-07-23T19:12:08.083Z,21.10
2018-07-23T19:14:36.918Z,21.10
2018-07-23T19:17:07.065Z,21.10
2018-07-23T19:19:35.873Z,21.00
2018-07-23T19:22:04.731Z,21.00
2018-07-23T19:24:33.545Z,21.00
2018-07-23T19:27:02.626Z,20.80
2018-07-23T19:29:31.419Z,20.70
2018-07-23T19:32:00.229Z,20.60
2018-07-23T19:34:29.023Z,20.60
2018-07-23T19:36:57.853Z,20.50
2018-07-23T19:39:26.689Z,20.50
2018-07-23T19:41:55.527Z,20.40
2018-07-23T19:44:24.311Z,20.30
2018-07-23T19:46:53.114Z,20.20
2018-07-23T19:49:21.881Z,20.10
2018-07-23T19:51:50.754Z,20.00
2018-07-23T19:54:19.587Z,20.00
2018-07-23T19:56:48.400Z,19.90
2018-07-23T19:59:17.230Z,19.90
2018-07-23T20:01:46.055Z,19.80
2018-07-23T20:04:14.954Z,19.70
2018-07-23T20:06:43.752Z,19.70
2018-07-23T20:09:12.793Z,19.60
2018-07-23T20:11:41.601Z,19.50
2018-07-23T20:14:10.525Z,19.40
2018-07-23T20:16:39.353Z,19.40
2018-07-23T20:19:08.140Z,19.30
2018-07-23T20:21:36.934Z,19.30
2018-07-23T20:24:05.888Z,19.20
2018-07-23T20:26:34.634Z,19.10
2018-07-23T20:29:03.496Z,19.00
2018-07-23T20:31:32.278Z,19.00
2018-07-23T20:34:01.216Z,19.00
2018-07-23T20:36:30.017Z,18.90
2018-07-23T20:38:58.975Z,18.80
2018-07-23T20:41:27.735Z,18.80
2018-07-23T20:43:56.509Z,18.70
2018-07-23T20:46:25.328Z,18.70
2018-07-23T20:48:54.215Z,18.60
2018-07-23T20:51:22.984Z,18.60
2018-07-23T20:53:51.807Z,18.50
2018-07-23T20:56:20.580Z,18.50
2018-07-23T20:58:49.362Z,18.50
2018-07-23T21:01:18.108Z,18.50
2018-07-23T21:03:46.889Z,18.50
2018-07-23T21:06:15.803Z,18.40
2018-07-23T21:08:44.562Z,18.40
2018-07-23T21:11:13.332Z,18.40
2018-07-23T21:13:42.112Z,18.40
2018-07-23T21:16:11.019Z,18.30
2018-07-23T21:18:39.824Z,18.30
2018-07-23T21:21:08.647Z,18.20
2018-07-23T21:23:37.505Z,18.20
2018-07-23T21:26:06.415Z,18.20
2018-07-23T21:28:35.341Z,18.10
2018-07-23T21:31:04.208Z,18.10
2018-07-23T21:33:32.977Z,18.10
2018-07-23T21:36:01.723Z,18.00
2018-07-23T21:38:30.567Z,18.00
2018-07-23T21:40:59.458Z,18.00
2018-07-23T21:43:28.285Z,18.00
2018-07-23T21:45:57.149Z,17.90
2018-07-23T21:48:25.975Z,17.80
2018-07-23T21:50:54.766Z,17.80
2018-07-23T21:53:23.619Z,17.80
2018-07-23T21:55:52.471Z,17.80
2018-07-23T21:58:21.241Z,17.80
2018-07-23T22:00:50.057Z,17.70
2018-07-23T22:03:18.981Z,17.70
2018-07-23T22:05:47.790Z,17.70
2018-07-23T22:08:16.588Z,17.70
2018-07-23T22:10:45.399Z,17.60
2018-07-23T22:13:14.274Z,17.50
2018-07-23T22:15:43.074Z,17.50
2018-07-23T22:18:11.904Z,17.50
2018-07-23T22:20:40.669Z,17.50
2018-07-23T22:23:09.485Z,17.50
2018-07-23T22:25:38.290Z,17.50
2018-07-23T22:28:07.090Z,17.50
2018-07-23T22:30:35.890Z,17.40
2018-07-23T22:33:04.791Z,17.40
2018-07-23T22:35:33.638Z,17.40
2018-07-23T22:38:02.467Z,17.40
2018-07-23T22:40:31.264Z,17.40
2018-07-23T22:43:00.040Z,17.40
2018-07-23T22:45:28.812Z,17.40
2018-07-23T22:47:57.552Z,17.50
2018-07-23T22:50:26.570Z,17.40
2018-07-23T22:52:55.360Z,17.40
2018-07-23T22:55:24.126Z,17.40
2018-07-23T22:57:52.898Z,17.60
2018-07-23T23:00:21.830Z,17.70
2018-07-23T23:02:50.662Z,17.80
2018-07-23T23:05:19.437Z,17.80
2018-07-23T23:07:48.213Z,17.90
2018-07-23T23:10:17.001Z,18.00
2018-07-23T23:12:45.868Z,18.10
2018-07-23T23:15:14.697Z,18.10
2018-07-23T23:17:43.473Z,18.10
2018-07-23T23:20:12.270Z,18.10
2018-07-23T23:22:41.087Z,18.10
2018-07-23T23:25:09.885Z,18.00
2018-07-23T23:27:38.756Z,18.00
2018-07-23T23:30:08.345Z,18.00
2018-07-23T23:32:37.126Z,18.00
2018-07-23T23:35:05.984Z,18.00
2018-07-23T23:37:34.750Z,18.00
2018-07-23T23:40:03.632Z,18.00
2018-07-23T23:42:32.468Z,17.90
2018-07-23T23:45:01.262Z,17.90
2018-07-23T23:47:30.107Z,17.90
2018-07-23T23:49:58.859Z,17.90
2018-07-23T23:52:27.623Z,17.90
2018-07-23T23:54:56.450Z,17.90
2018-07-23T23:57:25.310Z,17.80
2018-07-23T23:59:54.098Z,17.80
